Ojai, CA (93023)

1:14 AM PST on November 22, 2014 (GMT -0800)
Fairview Road | Change Station
CLOSE
Current Station
Personal Weather Station
Location: Ojai, CA
Elevation: 1056 ft
Nearby Weather Stations

Elev 1056 ft 34.46 °N, 119.26 °W | Updated 6 minutes ago

Clear
Clear
51.6 °F
Feels Like 51.6 °F
N
0.0
Wind Variable Wind from NNW

Today
High -- | Low -- °F
--% Chance of Precip.
Yesterday
High -- | Low -- °F
Precip. -- in
6:37 AM 4:48 PM
Waning Crescent, 0% visible
Pressure 30.05 in
Visibility 10.0 miles
Clouds Clear
Dew Point 39 °F
Humidity 62%
Rainfall 0.00 in
Snow Depth Not available.
UV 0 out of 12
Pollen 2.20 out of 12
Air Quality Not available.
Flu Activity Not available.
METAR KOXR 220851Z AUTO 31003KT 10SM CLR 15/04 A3005 RMK AO2 SLP175 T01500044 51008

More Conditions Fewer Conditions

Pressure 30.05 in
Visibility 10.0 miles
Clouds Clear
Dew Point 39 °F
Humidity 62%
Rainfall 0.00 in
Snow Depth Not available.
UV 0 out of 12
Pollen 2.20 out of 12
Air Quality Not available.
Flu Activity Not available.
METAR KOXR 220851Z AUTO 31003KT 10SM CLR 15/04 A3005 RMK AO2 SLP175 T01500044 51008

More Conditions Fewer Conditions

10-Day Weather Forecast

Almanac

Astronomy

Nov. 22, 2014 Rise Set
Actual Time
Civil Twilight
Nautical Twilight
Astronomical Twilight
Moon
Length of Visible Light
Length of Day
Tomorrow will be .
, % of the Moon is Illuminated

Today's Extremes

State Highs State Lows

Community

WunderPhotos

Upload Photos

1,772,794 photos uploaded!

WunderBlogs® & News

Nearby

Air Quality

  Air Quality AQ Index Pollutant
Not available.

Snow Depth

Station Depth Elevation

Earthquake Activity

City Distance Mag. Time & Date
Minimum magnitude displayed is 2.5.

Coastal Water Temperatures

Place Temperature

Nearby Weather Stations